createdAt,value
2017-11-21T00:02:12.221Z,9.00
2017-11-21T00:04:40.302Z,9.00
2017-11-21T00:07:08.410Z,9.00
2017-11-21T00:09:36.584Z,9.00
2017-11-21T00:12:04.829Z,9.00
2017-11-21T00:14:32.984Z,9.00
2017-11-21T00:17:01.280Z,9.00
2017-11-21T00:19:29.380Z,9.10
2017-11-21T00:21:57.749Z,9.10
2017-11-21T00:24:25.835Z,9.10
2017-11-21T00:26:53.988Z,9.10
2017-11-21T00:29:22.076Z,9.10
2017-11-21T00:31:50.180Z,9.10
2017-11-21T00:34:18.608Z,9.10
2017-11-21T00:36:46.730Z,9.20
2017-11-21T00:39:14.800Z,9.10
2017-11-21T00:41:42.896Z,9.20
2017-11-21T00:44:10.993Z,9.20
2017-11-21T00:46:39.087Z,9.20
2017-11-21T00:49:07.179Z,9.20
2017-11-21T00:51:35.260Z,9.20
2017-11-21T00:54:03.396Z,9.20
2017-11-21T00:56:31.481Z,9.20
2017-11-21T00:58:59.604Z,9.20
2017-11-21T01:01:27.854Z,9.20
2017-11-21T01:03:55.934Z,9.20
2017-11-21T01:06:24.042Z,9.20
2017-11-21T01:08:52.129Z,9.20
2017-11-21T01:11:20.221Z,9.30
2017-11-21T01:13:48.291Z,9.20
2017-11-21T01:16:16.414Z,9.20
2017-11-21T01:18:45.285Z,9.20
2017-11-21T01:21:13.354Z,9.20
2017-11-21T01:23:41.468Z,9.20
2017-11-21T01:26:09.856Z,9.20
2017-11-21T01:28:38.093Z,9.20
2017-11-21T01:31:06.197Z,9.20
2017-11-21T01:33:34.626Z,9.30
2017-11-21T01:36:03.851Z,9.30
2017-11-21T01:38:32.117Z,9.30
2017-11-21T01:41:00.268Z,9.30
2017-11-21T01:43:28.354Z,9.30
2017-11-21T01:45:56.793Z,9.30
2017-11-21T01:48:24.874Z,9.30
2017-11-21T01:50:52.977Z,9.30
2017-11-21T01:53:21.825Z,9.30
2017-11-21T01:55:49.916Z,9.30
2017-11-21T01:58:18.011Z,9.30
2017-11-21T02:00:46.108Z,9.30
2017-11-21T02:03:14.202Z,9.40
2017-11-21T02:05:43.330Z,9.40
2017-11-21T02:08:11.468Z,9.40
2017-11-21T02:10:39.789Z,9.40
2017-11-21T02:13:07.890Z,9.40
2017-11-21T02:15:35.974Z,9.40
2017-11-21T02:18:04.056Z,9.40
2017-11-21T02:20:32.512Z,9.40
2017-11-21T02:23:00.916Z,9.40
2017-11-21T02:25:29.042Z,9.40
2017-11-21T02:27:57.877Z,9.40
2017-11-21T02:30:25.957Z,9.40
2017-11-21T02:39:37.919Z,9.50
2017-11-21T02:42:06.226Z,9.50
2017-11-21T02:44:34.345Z,9.50
2017-11-21T02:47:02.443Z,9.50
2017-11-21T02:49:30.616Z,9.50
2017-11-21T02:51:58.790Z,9.50
2017-11-21T02:54:26.905Z,9.50
2017-11-21T02:56:55.004Z,9.50
2017-11-21T02:59:23.085Z,9.60
2017-11-21T03:01:51.177Z,9.60
2017-11-21T03:04:19.297Z,9.60
2017-11-21T03:06:47.380Z,9.60
2017-11-21T03:09:15.593Z,9.60
2017-11-21T03:11:43.681Z,9.60
2017-11-21T03:14:11.841Z,9.60
2017-11-21T03:16:40.162Z,9.60
2017-11-21T03:19:08.253Z,9.60
2017-11-21T03:21:54.102Z,9.70
2017-11-21T03:24:40.596Z,9.70
2017-11-21T03:27:14.336Z,9.60
2017-11-21T03:29:42.630Z,9.70
2017-11-21T03:32:10.728Z,9.70
2017-11-21T03:34:39.058Z,9.70
2017-11-21T03:37:07.153Z,9.70
2017-11-21T03:39:35.300Z,9.70
2017-11-21T03:42:03.389Z,9.70
2017-11-21T03:44:31.549Z,9.70
2017-11-21T03:46:59.634Z,9.70
2017-11-21T03:49:27.738Z,9.70
2017-11-21T03:51:55.828Z,9.70
2017-11-21T03:54:23.922Z,9.70
2017-11-21T03:56:52.029Z,9.70
2017-11-21T03:59:20.117Z,9.70
2017-11-21T04:01:48.256Z,9.70
2017-11-21T04:04:16.353Z,9.70
2017-11-21T04:06:44.433Z,9.70
2017-11-21T04:09:12.536Z,9.70
2017-11-21T04:11:41.073Z,9.70
2017-11-21T04:14:09.214Z,9.70
2017-11-21T04:16:38.064Z,9.70
2017-11-21T04:19:06.160Z,9.70
2017-11-21T04:21:34.263Z,9.70
2017-11-21T04:24:02.358Z,9.70
2017-11-21T04:26:31.233Z,9.70
2017-11-21T04:28:59.324Z,9.70
2017-11-21T04:31:27.437Z,9.70
2017-11-21T04:33:55.617Z,9.70
2017-11-21T04:36:23.729Z,9.70
2017-11-21T04:38:51.808Z,9.70
2017-11-21T04:41:19.966Z,9.70
2017-11-21T04:43:48.154Z,9.70
2017-11-21T04:46:16.409Z,9.70
2017-11-21T04:48:45.267Z,9.70
2017-11-21T04:51:13.341Z,9.70
2017-11-21T04:53:41.485Z,9.70
2017-11-21T04:56:09.586Z,9.70
2017-11-21T04:58:37.680Z,9.70
2017-11-21T05:01:05.874Z,9.70
2017-11-21T05:03:33.961Z,9.70
2017-11-21T05:06:02.070Z,9.70
2017-11-21T05:08:30.171Z,9.70
2017-11-21T05:10:58.284Z,9.70
2017-11-21T05:13:26.761Z,9.70
2017-11-21T05:15:54.849Z,9.70
2017-11-21T05:18:22.958Z,9.70
2017-11-21T05:20:51.041Z,9.70
2017-11-21T05:23:19.345Z,9.80
2017-11-21T05:25:47.424Z,9.70
2017-11-21T05:28:15.682Z,9.80
2017-11-21T05:30:43.797Z,9.80
2017-11-21T05:33:29.618Z,9.80
2017-11-21T05:35:58.504Z,9.80
2017-11-21T05:38:26.588Z,9.80
2017-11-21T05:40:55.515Z,9.80
2017-11-21T05:43:23.616Z,9.80
2017-11-21T05:45:51.805Z,9.80
2017-11-21T05:48:19.894Z,9.80
2017-11-21T05:50:48.917Z,9.80
2017-11-21T05:53:17.065Z,9.80
2017-11-21T05:55:45.194Z,9.80
2017-11-21T05:58:13.299Z,9.80
2017-11-21T06:00:41.458Z,9.80
2017-11-21T06:03:09.570Z,9.80
2017-11-21T06:05:38.437Z,9.80
2017-11-21T06:08:06.685Z,9.80
2017-11-21T06:10:34.793Z,9.80
2017-11-21T06:13:03.666Z,9.80
2017-11-21T06:15:31.767Z,9.80
2017-11-21T06:18:00.733Z,9.80
2017-11-21T06:20:28.829Z,9.80
2017-11-21T06:22:56.927Z,9.80
2017-11-21T06:25:25.020Z,9.80
2017-11-21T06:27:53.101Z,9.80
2017-11-21T06:30:21.238Z,9.80
2017-11-21T06:32:49.325Z,9.80
2017-11-21T06:35:17.422Z,9.80
2017-11-21T06:37:45.536Z,9.80
2017-11-21T06:40:13.705Z,9.80
2017-11-21T06:42:42.578Z,9.90
2017-11-21T06:45:10.678Z,9.80
2017-11-21T06:47:39.547Z,9.80
2017-11-21T06:50:07.652Z,9.80
2017-11-21T06:52:35.744Z,9.90
2017-11-21T06:55:03.833Z,9.80
2017-11-21T06:57:31.958Z,9.80
2017-11-21T07:00:00.042Z,9.80
2017-11-21T07:02:28.212Z,9.80
2017-11-21T07:04:56.300Z,9.80
2017-11-21T07:07:24.384Z,9.80
2017-11-21T07:09:52.486Z,9.80
2017-11-21T07:12:20.566Z,9.80
2017-11-21T07:14:48.679Z,9.80
2017-11-21T07:17:16.765Z,9.80
2017-11-21T07:19:44.857Z,9.80
2017-11-21T07:22:12.969Z,9.80
2017-11-21T07:24:41.056Z,9.80
2017-11-21T07:27:09.161Z,9.80
2017-11-21T07:29:37.257Z,9.80
2017-11-21T07:32:05.394Z,9.80
2017-11-21T07:34:33.528Z,9.80
2017-11-21T07:37:01.629Z,9.80
2017-11-21T07:39:29.710Z,9.80
2017-11-21T07:41:57.798Z,9.80
2017-11-21T07:44:25.901Z,9.80
2017-11-21T07:46:53.993Z,9.80
2017-11-21T07:49:22.885Z,9.90
2017-11-21T07:51:50.978Z,9.80
2017-11-21T07:54:19.098Z,9.90
2017-11-21T07:56:47.172Z,9.90
2017-11-21T07:59:15.257Z,9.80
2017-11-21T08:01:43.377Z,9.90
2017-11-21T08:04:11.472Z,9.80
2017-11-21T08:06:39.598Z,9.80
2017-11-21T08:09:08.483Z,9.80
2017-11-21T08:11:37.325Z,9.90
2017-11-21T08:14:05.469Z,9.90
2017-11-21T08:16:33.579Z,9.80
2017-11-21T08:19:01.825Z,9.90
2017-11-21T08:21:29.920Z,9.90
2017-11-21T08:23:57.996Z,9.90
2017-11-21T08:26:26.189Z,9.90
2017-11-21T08:28:54.359Z,9.90
2017-11-21T08:31:22.737Z,9.90
2017-11-21T08:33:50.832Z,9.90
2017-11-21T08:36:18.980Z,9.90
2017-11-21T08:38:47.124Z,9.90
2017-11-21T08:41:16.013Z,10.00
2017-11-21T08:43:44.302Z,9.90
2017-11-21T08:46:12.389Z,9.90
2017-11-21T08:48:40.477Z,10.00
2017-11-21T08:51:08.711Z,10.00
2017-11-21T08:53:37.937Z,10.00
2017-11-21T08:56:06.020Z,10.00
2017-11-21T08:58:34.130Z,10.00
2017-11-21T09:01:03.193Z,10.00
2017-11-21T09:03:31.291Z,10.00
2017-11-21T09:06:00.174Z,10.00
2017-11-21T09:08:28.287Z,10.00
2017-11-21T09:10:56.412Z,10.00
2017-11-21T09:13:24.545Z,10.00
2017-11-21T09:15:52.861Z,10.00
2017-11-21T09:18:20.973Z,10.00
2017-11-21T09:20:49.082Z,10.00
2017-11-21T09:23:17.212Z,10.00
2017-11-21T09:25:46.269Z,10.00
2017-11-21T09:28:14.409Z,10.00
2017-11-21T09:30:42.516Z,10.00
2017-11-21T09:33:10.615Z,10.10
2017-11-21T09:35:38.692Z,10.00
2017-11-21T09:38:06.813Z,10.10
2017-11-21T09:40:34.986Z,10.10
2017-11-21T09:43:03.070Z,10.10
2017-11-21T09:45:31.177Z,10.10
2017-11-21T09:47:59.569Z,10.00
2017-11-21T09:50:28.423Z,10.10
2017-11-21T09:52:56.548Z,10.10
2017-11-21T09:55:24.636Z,10.10
2017-11-21T09:57:52.921Z,10.10
2017-11-21T10:00:21.244Z,10.10
2017-11-21T10:02:49.384Z,10.10
2017-11-21T10:05:18.424Z,10.10
2017-11-21T10:07:46.514Z,10.10
2017-11-21T10:10:14.596Z,10.10
2017-11-21T10:12:42.693Z,10.10
2017-11-21T10:15:10.796Z,10.10
2017-11-21T10:17:38.886Z,10.10
2017-11-21T10:20:07.046Z,10.10
2017-11-21T10:22:35.159Z,10.10
2017-11-21T10:25:03.268Z,10.10
2017-11-21T10:27:31.644Z,10.10
2017-11-21T10:29:59.746Z,10.10
2017-11-21T10:32:27.896Z,10.10
2017-11-21T10:34:55.981Z,10.10
2017-11-21T10:37:25.231Z,10.00
2017-11-21T10:39:53.340Z,10.10
2017-11-21T10:42:21.629Z,10.10
2017-11-21T10:44:49.796Z,10.00
2017-11-21T10:47:18.314Z,10.00
2017-11-21T10:49:46.438Z,10.10
2017-11-21T10:52:14.541Z,10.10
2017-11-21T10:54:43.058Z,10.10
2017-11-21T10:57:11.188Z,10.10
2017-11-21T10:59:40.440Z,10.10
2017-11-21T11:02:08.902Z,10.10
2017-11-21T11:04:36.988Z,10.10
2017-11-21T11:07:05.121Z,10.10
2017-11-21T11:09:34.075Z,10.00
2017-11-21T11:12:02.200Z,10.10
2017-11-21T11:14:30.278Z,10.10
2017-11-21T11:16:58.362Z,10.10
2017-11-21T11:19:26.491Z,10.10
2017-11-21T11:21:55.373Z,10.10
2017-11-21T11:24:23.492Z,10.10
2017-11-21T11:26:51.599Z,10.00
2017-11-21T11:29:19.700Z,10.00
2017-11-21T11:31:48.569Z,10.00
2017-11-21T11:34:16.673Z,10.00
2017-11-21T11:36:46.102Z,10.00
2017-11-21T11:39:14.205Z,10.00
2017-11-21T11:41:42.340Z,10.00
2017-11-21T11:44:10.485Z,10.00
2017-11-21T11:46:39.695Z,10.00
2017-11-21T11:49:07.792Z,10.00
2017-11-21T11:51:35.876Z,10.00
2017-11-21T11:54:04.985Z,10.00
2017-11-21T11:56:34.002Z,10.00
2017-11-21T11:59:02.110Z,9.90
2017-11-21T12:01:30.404Z,10.00
2017-11-21T12:03:58.600Z,9.90
2017-11-21T12:06:26.706Z,10.00
2017-11-21T12:08:54.844Z,10.00
2017-11-21T12:11:22.974Z,10.00
2017-11-21T12:13:52.011Z,10.00
2017-11-21T12:16:20.094Z,10.00
2017-11-21T12:18:48.185Z,10.00
2017-11-21T12:21:16.611Z,10.00
2017-11-21T12:23:44.768Z,10.00
2017-11-21T12:26:13.702Z,9.90
2017-11-21T12:28:41.878Z,9.90
2017-11-21T12:31:09.957Z,9.90
2017-11-21T12:33:38.076Z,9.90
2017-11-21T12:36:06.971Z,9.90
2017-11-21T12:38:35.037Z,9.90
2017-11-21T12:41:04.092Z,9.90
2017-11-21T12:43:32.629Z,9.90
2017-11-21T12:46:01.662Z,9.90
2017-11-21T12:48:29.762Z,9.90
2017-11-21T12:50:57.989Z,9.90
2017-11-21T12:53:26.072Z,9.90
2017-11-21T12:55:54.309Z,9.90
2017-11-21T12:58:22.443Z,9.90
2017-11-21T13:00:50.758Z,9.90
2017-11-21T13:03:19.600Z,9.80
2017-11-21T13:05:48.022Z,9.90
2017-11-21T13:08:16.887Z,9.80
2017-11-21T13:10:45.095Z,9.80
2017-11-21T13:13:13.201Z,9.80
2017-11-21T13:15:41.319Z,9.80
2017-11-21T13:18:09.545Z,9.80
2017-11-21T13:20:38.619Z,9.80
2017-11-21T13:23:06.768Z,9.80
2017-11-21T13:25:34.851Z,9.80
2017-11-21T13:28:03.770Z,9.80
2017-11-21T13:30:32.644Z,9.70
2017-11-21T13:33:00.737Z,9.80
2017-11-21T13:35:28.941Z,9.80
2017-11-21T13:37:57.051Z,9.70
2017-11-21T13:40:25.157Z,9.80
2017-11-21T13:42:53.415Z,9.70
2017-11-21T13:45:21.564Z,9.70
2017-11-21T13:47:49.681Z,9.70
2017-11-21T13:50:17.826Z,9.80
2017-11-21T13:52:46.765Z,9.70
2017-11-21T13:55:14.872Z,9.80
2017-11-21T13:57:43.039Z,9.80
2017-11-21T14:00:11.448Z,9.70
2017-11-21T14:02:54.693Z,9.70
2017-11-21T14:05:25.439Z,9.80
2017-11-21T14:07:53.533Z,9.70
2017-11-21T14:10:21.761Z,9.70
2017-11-21T14:12:49.858Z,9.80
2017-11-21T14:15:18.033Z,9.70
2017-11-21T14:17:46.901Z,9.70
2017-11-21T14:20:15.041Z,9.70
2017-11-21T14:22:43.326Z,9.70
2017-11-21T14:25:11.420Z,9.70
2017-11-21T14:27:39.538Z,9.70
2017-11-21T14:30:07.630Z,9.70
2017-11-21T14:32:35.739Z,9.70
2017-11-21T14:35:03.843Z,9.60
2017-11-21T14:37:31.972Z,9.60
2017-11-21T14:40:00.856Z,9.60
2017-11-21T14:42:29.708Z,9.60
2017-11-21T14:44:57.813Z,9.50
2017-11-21T14:47:26.669Z,9.50
2017-11-21T14:49:54.788Z,9.50
2017-11-21T14:52:22.894Z,9.50
2017-11-21T14:54:50.973Z,9.50
2017-11-21T14:57:19.076Z,9.60
2017-11-21T14:59:47.176Z,9.50
2017-11-21T15:02:16.053Z,9.50
2017-11-21T15:04:44.917Z,9.50
2017-11-21T15:07:13.012Z,9.50
2017-11-21T15:09:41.909Z,9.60
2017-11-21T15:12:10.773Z,9.60
2017-11-21T15:14:38.861Z,9.60
2017-11-21T15:17:08.089Z,9.60
2017-11-21T15:19:36.184Z,9.50
2017-11-21T15:22:04.280Z,9.60
2017-11-21T15:24:32.444Z,9.60
2017-11-21T15:27:00.541Z,9.60
2017-11-21T15:29:28.644Z,9.60
2017-11-21T15:31:57.504Z,9.60
2017-11-21T15:34:26.391Z,9.60
2017-11-21T15:36:54.573Z,9.60
2017-11-21T15:39:22.701Z,9.50
2017-11-21T15:41:50.822Z,9.60
2017-11-21T15:44:19.569Z,9.60
2017-11-21T15:46:47.838Z,9.60
2017-11-21T15:49:16.160Z,9.60
2017-11-21T15:51:44.450Z,9.60
2017-11-21T15:54:12.524Z,9.60
2017-11-21T15:56:41.947Z,9.60
2017-11-21T15:59:10.837Z,9.60
2017-11-21T16:01:38.945Z,9.50
2017-11-21T16:04:07.809Z,9.50
2017-11-21T16:06:37.254Z,9.50
2017-11-21T16:09:05.377Z,9.50
2017-11-21T16:11:34.237Z,9.50
2017-11-21T16:14:02.328Z,9.50
2017-11-21T16:16:31.191Z,9.50
2017-11-21T16:18:59.292Z,9.50
2017-11-21T16:21:28.155Z,9.50
2017-11-21T16:23:56.257Z,9.40
2017-11-21T16:26:24.355Z,9.40
2017-11-21T16:28:52.593Z,9.40
2017-11-21T16:31:21.644Z,9.40
2017-11-21T16:33:49.740Z,9.50
2017-11-21T16:36:17.873Z,9.40
2017-11-21T16:38:45.961Z,9.40
2017-11-21T16:41:14.075Z,9.40
2017-11-21T16:43:42.234Z,9.40
2017-11-21T16:46:10.327Z,9.40
2017-11-21T16:48:39.203Z,9.40
2017-11-21T16:51:07.512Z,9.40
2017-11-21T16:53:36.425Z,9.40
2017-11-21T16:56:04.686Z,9.40
2017-11-21T16:58:32.790Z,9.40
2017-11-21T17:01:01.882Z,9.30
2017-11-21T17:03:30.016Z,9.40
2017-11-21T17:05:58.116Z,9.40
2017-11-21T17:08:26.220Z,9.40
2017-11-21T17:10:54.317Z,9.40
2017-11-21T17:13:23.188Z,9.40
2017-11-21T17:15:51.277Z,9.40
2017-11-21T17:18:19.835Z,9.40
2017-11-21T17:20:48.954Z,9.40
2017-11-21T17:23:17.085Z,9.30
2017-11-21T17:25:45.193Z,9.30
2017-11-21T17:28:13.288Z,9.40
2017-11-21T17:30:42.642Z,9.30
2017-11-21T17:33:10.726Z,9.30
2017-11-21T17:35:38.873Z,9.40
2017-11-21T17:38:06.952Z,9.30
2017-11-21T17:40:35.044Z,9.30
2017-11-21T17:43:03.157Z,9.30
2017-11-21T17:45:31.274Z,9.30
2017-11-21T17:47:59.359Z,9.30
2017-11-21T17:50:27.553Z,9.30
2017-11-21T17:52:55.625Z,9.30
2017-11-21T17:55:24.261Z,9.20
2017-11-21T17:57:52.356Z,9.20
2017-11-21T18:00:21.061Z,9.20
2017-11-21T18:02:49.305Z,9.10
2017-11-21T18:05:17.446Z,9.20
2017-11-21T18:07:46.022Z,9.20
2017-11-21T18:10:14.915Z,9.20
2017-11-21T18:12:43.768Z,9.20
2017-11-21T18:15:11.889Z,9.20
2017-11-21T18:17:40.048Z,9.20
2017-11-21T18:20:08.933Z,9.10
2017-11-21T18:22:37.024Z,9.20
2017-11-21T18:25:05.188Z,9.20
2017-11-21T18:27:34.047Z,9.20
2017-11-21T18:30:02.178Z,9.20
2017-11-21T18:32:30.277Z,9.20
2017-11-21T18:34:58.380Z,9.20
2017-11-21T18:37:26.605Z,9.20
2017-11-21T18:39:54.701Z,9.20
2017-11-21T18:42:22.813Z,9.10
2017-11-21T18:44:50.950Z,9.10
2017-11-21T18:47:19.056Z,9.10
2017-11-21T18:49:47.910Z,9.20
2017-11-21T18:52:16.352Z,9.20
2017-11-21T18:54:44.446Z,9.10
2017-11-21T18:57:12.586Z,9.20
2017-11-21T18:59:40.918Z,9.20
2017-11-21T19:02:10.889Z,9.20
2017-11-21T19:04:38.985Z,9.20
2017-11-21T19:07:07.087Z,9.20
2017-11-21T19:09:35.222Z,9.10
2017-11-21T19:12:03.495Z,9.10
2017-11-21T19:14:31.570Z,9.10
2017-11-21T19:17:00.010Z,9.10
2017-11-21T19:19:29.862Z,9.10
2017-11-21T19:21:57.960Z,9.10
2017-11-21T19:24:26.056Z,9.10
2017-11-21T19:26:54.150Z,9.10
2017-11-21T19:29:22.264Z,9.10
2017-11-21T19:31:50.442Z,9.10
2017-11-21T19:34:18.661Z,9.10
2017-11-21T19:36:47.554Z,9.20
2017-11-21T19:39:16.428Z,9.10
2017-11-21T19:41:44.563Z,9.20
2017-11-21T19:44:12.632Z,9.20
2017-11-21T19:46:40.927Z,9.20
2017-11-21T19:49:09.047Z,9.20
2017-11-21T19:51:37.901Z,9.20
2017-11-21T19:54:06.021Z,9.20
2017-11-21T19:56:34.277Z,9.20
2017-11-21T19:59:03.269Z,9.20
2017-11-21T20:01:32.134Z,9.20
2017-11-21T20:04:00.241Z,9.10
2017-11-21T20:06:29.112Z,9.10
2017-11-21T20:08:57.292Z,9.10
2017-11-21T20:11:25.497Z,9.10
2017-11-21T20:13:53.589Z,9.10
2017-11-21T20:16:21.737Z,9.10
2017-11-21T20:18:50.833Z,9.10
2017-11-21T20:21:19.080Z,9.10
2017-11-21T20:23:47.303Z,9.10
2017-11-21T20:26:15.381Z,9.10
2017-11-21T20:28:43.475Z,9.10
2017-11-21T20:31:11.602Z,9.10
2017-11-21T20:33:39.721Z,9.10
2017-11-21T20:36:07.794Z,9.10
2017-11-21T20:38:35.905Z,9.10
2017-11-21T20:41:04.020Z,9.10
2017-11-21T20:43:32.138Z,9.10
2017-11-21T20:46:01.002Z,9.10
2017-11-21T20:48:29.100Z,9.10
2017-11-21T20:50:57.204Z,9.00
2017-11-21T20:53:25.291Z,9.00
2017-11-21T20:55:53.388Z,9.10
2017-11-21T20:58:21.533Z,9.10
2017-11-21T21:00:49.616Z,9.10
2017-11-21T21:03:17.869Z,9.10
2017-11-21T21:05:46.641Z,9.10
2017-11-21T21:08:14.741Z,9.00
2017-11-21T21:10:42.840Z,9.00
2017-11-21T21:13:11.051Z,9.00
2017-11-21T21:15:39.412Z,9.00
2017-11-21T21:18:07.561Z,9.00
2017-11-21T21:20:35.634Z,9.00
2017-11-21T21:23:03.764Z,9.10
2017-11-21T21:25:32.658Z,9.10
2017-11-21T21:28:00.775Z,9.10
2017-11-21T21:30:28.858Z,9.10
2017-11-21T21:32:58.057Z,9.10
2017-11-21T21:35:26.168Z,9.10
2017-11-21T21:37:55.056Z,9.00
2017-11-21T21:40:23.356Z,9.00
2017-11-21T21:42:51.441Z,9.00
2017-11-21T21:45:19.567Z,9.00
2017-11-21T21:47:48.425Z,9.00
2017-11-21T21:50:16.635Z,9.00
2017-11-21T21:52:44.707Z,9.00
2017-11-21T21:55:12.785Z,9.00
2017-11-21T21:57:41.701Z,8.90
2017-11-21T22:00:09.846Z,9.00
2017-11-21T22:02:38.706Z,8.90
2017-11-21T22:05:06.870Z,9.00
2017-11-21T22:07:34.961Z,9.00
2017-11-21T22:10:03.054Z,9.00
2017-11-21T22:12:31.942Z,9.00
2017-11-21T22:15:00.801Z,9.00
2017-11-21T22:17:28.909Z,9.00
2017-11-21T22:19:57.774Z,9.00
2017-11-21T22:22:25.932Z,9.00
2017-11-21T22:24:54.045Z,9.00
2017-11-21T22:27:22.890Z,9.00
2017-11-21T22:29:51.734Z,9.00
2017-11-21T22:32:19.840Z,9.10
2017-11-21T22:34:47.967Z,9.00
2017-11-21T22:37:16.149Z,9.00
2017-11-21T22:39:44.253Z,9.00
2017-11-21T22:42:13.413Z,9.00
2017-11-21T22:44:41.483Z,9.00
2017-11-21T22:47:10.366Z,9.00
2017-11-21T22:49:38.493Z,9.00
2017-11-21T22:52:06.626Z,8.90
2017-11-21T22:54:35.497Z,8.90
2017-11-21T22:57:03.670Z,8.90
2017-11-21T22:59:31.760Z,8.90
2017-11-21T23:02:00.687Z,9.00
2017-11-21T23:04:28.787Z,9.00
2017-11-21T23:06:56.891Z,9.00
2017-11-21T23:09:25.764Z,9.00
2017-11-21T23:11:53.879Z,8.90
2017-11-21T23:14:21.949Z,8.90
2017-11-21T23:16:50.053Z,8.90
2017-11-21T23:19:18.369Z,8.90
2017-11-21T23:21:46.443Z,9.00
2017-11-21T23:24:14.546Z,9.00
2017-11-21T23:26:42.672Z,9.00
2017-11-21T23:29:10.778Z,9.00
2017-11-21T23:31:39.674Z,9.00
2017-11-21T23:34:07.781Z,9.00
2017-11-21T23:36:35.968Z,9.00
2017-11-21T23:39:04.171Z,9.00
2017-11-21T23:41:32.267Z,8.90
2017-11-21T23:44:00.361Z,8.90
2017-11-21T23:46:28.461Z,8.90
2017-11-21T23:48:56.776Z,8.90
2017-11-21T23:51:25.728Z,8.90
2017-11-21T23:53:53.845Z,9.00
2017-11-21T23:56:22.690Z,9.00
2017-11-21T23:58:50.798Z,9.00
